Terminal Aerodrome Forecast
Issued by NWS Grand Junction, CO

Home | Current Version | Previous Version | Text Only | Print | Product List | Glossary On
Versions: 1 2 3 4 5 6 7 8 9 10 11 12 13 14 15 16 17 18 19 20 21 22 23 24 25 26 27 28 29 30 31 32 33 34 35 36 37 38 39
000
FTUS45 KGJT 271844 AAC
TAFGJT
TAF AMD
KGJT 271844Z 2719/2818 11006KT P6SM VCTS BKN070CB OVC100
      TEMPO 2719/2722 33020G28KT -TSRA BKN030 BKN050CB
     FM272200 29008KT P6SM VCTS SCT060CB BKN080
     FM280200 14008KT P6SM VCSH SCT050 OVC080
     FM280300 09006KT P6SM FEW010 SCT080
     FM281300 14005KT P6SM SCT100=

USA.gov is the U.S. government's official web portal to all federal, state and local government web resources and services.